JZA3761 CYUL-CYQB
Flight info
| Callsign | JZA3761 |
|---|---|
| Flight time | 0h 37m |
| Altitude | 19000 |
| Route | SINRO PESAC4 |
| Aircraft | DH8D/M-SDE2E3FGRY/H |
Departure
| Time | 2026-05-04 19:38 |
|---|---|
| Airport | Montreal / Pierre Elliott Trudeau International Airport (CYUL) |
Arrival
| Time | 2026-05-04 20:16 |
|---|---|
| Airport | Quebec Jean Lesage International Airport (CYQB) |
| Time | Latitude | Longitude | Altitude | Speed | Heading |
|---|---|---|---|---|---|
| 2026-05-04 19:18 | 45.46041 | -73.74614 | 126 ft | 0 kts | 268° |
| 2026-05-04 19:27 | 45.46041 | -73.74605 | 126 ft | 3 kts | 268° |
| 2026-05-04 19:28 | 45.46042 | -73.74575 | 126 ft | 3 kts | 269° |
| 2026-05-04 19:28 | 45.46042 | -73.74544 | 126 ft | 3 kts | 287° |
| 2026-05-04 19:28 | 45.46029 | -73.74526 | 126 ft | 3 kts | 357° |
| 2026-05-04 19:28 | 45.46023 | -73.74525 | 126 ft | 0 kts | 357° |
| 2026-05-04 19:32 | 45.46037 | -73.74526 | 126 ft | 5 kts | 2° |
| 2026-05-04 19:32 | 45.46087 | -73.74517 | 126 ft | 10 kts | 18° |
| 2026-05-04 19:32 | 45.46129 | -73.74418 | 126 ft | 15 kts | 87° |
| 2026-05-04 19:32 | 45.46135 | -73.74247 | 126 ft | 18 kts | 88° |
| 2026-05-04 19:33 | 45.46148 | -73.74045 | 126 ft | 22 kts | 53° |
| 2026-05-04 19:33 | 45.46269 | -73.73886 | 126 ft | 26 kts | 43° |
| 2026-05-04 19:33 | 45.46410 | -73.73698 | 126 ft | 29 kts | 43° |
| 2026-05-04 19:33 | 45.46567 | -73.73495 | 126 ft | 32 kts | 43° |
| 2026-05-04 19:34 | 45.46731 | -73.73281 | 126 ft | 31 kts | 43° |
| 2026-05-04 19:34 | 45.46889 | -73.73073 | 126 ft | 30 kts | 42° |
| 2026-05-04 19:34 | 45.47041 | -73.72873 | 126 ft | 29 kts | 42° |
| 2026-05-04 19:34 | 45.47189 | -73.72680 | 126 ft | 28 kts | 43° |
| 2026-05-04 19:35 | 45.47332 | -73.72492 | 126 ft | 27 kts | 43° |
| 2026-05-04 19:35 | 45.47471 | -73.72312 | 126 ft | 27 kts | 40° |
| 2026-05-04 19:35 | 45.47605 | -73.72136 | 126 ft | 26 kts | 43° |
| 2026-05-04 19:35 | 45.47734 | -73.71965 | 126 ft | 24 kts | 43° |
| 2026-05-04 19:36 | 45.47807 | -73.71810 | 126 ft | 17 kts | 108° |
| 2026-05-04 19:36 | 45.47756 | -73.71696 | 126 ft | 10 kts | 125° |
| 2026-05-04 19:36 | 45.47695 | -73.71635 | 126 ft | 13 kts | 174° |
| 2026-05-04 19:36 | 45.47652 | -73.71667 | 126 ft | 0 kts | 223° |
| 2026-05-04 19:37 | 45.47652 | -73.71668 | 126 ft | 0 kts | 223° |
| 2026-05-04 19:37 | 45.47651 | -73.71669 | 126 ft | 0 kts | 223° |
| 2026-05-04 19:37 | 45.47650 | -73.71670 | 126 ft | 0 kts | 223° |
| 2026-05-04 19:37 | 45.47649 | -73.71671 | 126 ft | 1 kts | 223° |
| 2026-05-04 19:38 | 45.47502 | -73.71863 | 126 ft | 66 kts | 221° |
| 2026-05-04 19:38 | 45.46982 | -73.72543 | 127 ft | 134 kts | 222° |
| 2026-05-04 19:38 | 45.46242 | -73.73512 | 529 ft | 152 kts | 221° |
| 2026-05-04 19:38 | 45.45415 | -73.74577 | 1104 ft | 162 kts | 221° |
| 2026-05-04 19:39 | 45.44517 | -73.75739 | 1632 ft | 177 kts | 221° |
| 2026-05-04 19:39 | 45.43590 | -73.76950 | 2361 ft | 179 kts | 222° |
| 2026-05-04 19:39 | 45.42692 | -73.78179 | 3301 ft | 170 kts | 223° |
| 2026-05-04 19:39 | 45.41894 | -73.79337 | 4278 ft | 162 kts | 230° |
| 2026-05-04 19:40 | 45.41516 | -73.80798 | 5064 ft | 165 kts | 267° |
| 2026-05-04 19:40 | 45.41930 | -73.82309 | 5845 ft | 176 kts | 304° |
| 2026-05-04 19:40 | 45.42998 | -73.83176 | 6611 ft | 194 kts | 339° |
| 2026-05-04 19:40 | 45.44372 | -73.83048 | 7364 ft | 208 kts | 6° |
| 2026-05-04 19:41 | 45.45757 | -73.82319 | 8100 ft | 214 kts | 13° |
| 2026-05-04 19:41 | 45.47150 | -73.81467 | 8832 ft | 216 kts | 14° |
| 2026-05-04 19:41 | 45.48516 | -73.80619 | 9576 ft | 216 kts | 13° |
| 2026-05-04 19:41 | 45.49904 | -73.79769 | 10303 ft | 217 kts | 13° |
| 2026-05-04 19:42 | 45.51297 | -73.78925 | 11001 ft | 218 kts | 13° |
| 2026-05-04 19:42 | 45.52685 | -73.78082 | 11633 ft | 219 kts | 13° |
| 2026-05-04 19:42 | 45.54077 | -73.77241 | 12219 ft | 221 kts | 13° |
| 2026-05-04 19:42 | 45.55479 | -73.76393 | 12835 ft | 220 kts | 13° |
| 2026-05-04 19:43 | 45.56880 | -73.75543 | 13420 ft | 220 kts | 13° |
| 2026-05-04 19:43 | 45.58292 | -73.74692 | 13952 ft | 221 kts | 12° |
| 2026-05-04 19:43 | 45.59686 | -73.73850 | 14438 ft | 224 kts | 12° |
| 2026-05-04 19:43 | 45.61129 | -73.72978 | 14879 ft | 229 kts | 12° |
| 2026-05-04 19:44 | 45.62594 | -73.72090 | 15326 ft | 231 kts | 12° |
| 2026-05-04 19:44 | 45.64058 | -73.71201 | 15769 ft | 233 kts | 12° |
| 2026-05-04 19:44 | 45.65542 | -73.70297 | 16220 ft | 235 kts | 12° |
| 2026-05-04 19:44 | 45.67023 | -73.69393 | 16648 ft | 236 kts | 12° |
| 2026-05-04 19:45 | 45.68528 | -73.68476 | 17075 ft | 237 kts | 12° |
| 2026-05-04 19:45 | 45.70036 | -73.67557 | 17481 ft | 238 kts | 12° |
| 2026-05-04 19:45 | 45.71523 | -73.66651 | 17875 ft | 239 kts | 12° |
| 2026-05-04 19:45 | 45.73055 | -73.65719 | 18272 ft | 240 kts | 11° |
| 2026-05-04 19:46 | 45.74563 | -73.64796 | 18662 ft | 241 kts | 11° |
| 2026-05-04 19:46 | 45.76146 | -73.63839 | 18727 ft | 256 kts | 11° |
| 2026-05-04 19:46 | 45.77834 | -73.62844 | 18728 ft | 271 kts | 11° |
| 2026-05-04 19:46 | 45.79519 | -73.61857 | 18727 ft | 282 kts | 12° |
| 2026-05-04 19:47 | 45.81352 | -73.60780 | 18725 ft | 293 kts | 12° |
| 2026-05-04 19:47 | 45.83254 | -73.59650 | 18724 ft | 302 kts | 13° |
| 2026-05-04 19:47 | 45.85214 | -73.58463 | 18723 ft | 310 kts | 13° |
| 2026-05-04 19:47 | 45.87189 | -73.57219 | 18721 ft | 317 kts | 13° |
| 2026-05-04 19:48 | 45.89178 | -73.55894 | 18720 ft | 326 kts | 18° |
| 2026-05-04 19:48 | 45.91074 | -73.53990 | 18721 ft | 343 kts | 32° |
| 2026-05-04 19:48 | 45.92788 | -73.51522 | 18721 ft | 353 kts | 39° |
| 2026-05-04 19:48 | 45.94426 | -73.48918 | 18720 ft | 356 kts | 40° |
| 2026-05-04 19:49 | 45.96107 | -73.46280 | 18721 ft | 357 kts | 39° |
| 2026-05-04 19:49 | 45.97786 | -73.43667 | 18720 ft | 359 kts | 39° |
| 2026-05-04 19:49 | 45.99486 | -73.41035 | 18720 ft | 360 kts | 39° |
| 2026-05-04 19:49 | 46.01155 | -73.38472 | 18720 ft | 361 kts | 39° |
| 2026-05-04 19:50 | 46.02864 | -73.35862 | 18720 ft | 362 kts | 39° |
| 2026-05-04 19:50 | 46.04580 | -73.33247 | 18724 ft | 363 kts | 38° |
| 2026-05-04 19:50 | 46.06234 | -73.30714 | 18720 ft | 363 kts | 39° |
| 2026-05-04 19:50 | 46.07958 | -73.28086 | 18720 ft | 364 kts | 38° |
| 2026-05-04 19:51 | 46.09124 | -73.26317 | 18720 ft | 364 kts | 38° |
| 2026-05-04 19:51 | 46.10846 | -73.23701 | 18720 ft | 364 kts | 38° |
| 2026-05-04 19:51 | 46.12542 | -73.21093 | 18719 ft | 365 kts | 38° |
| 2026-05-04 19:51 | 46.14277 | -73.18381 | 18719 ft | 366 kts | 38° |
| 2026-05-04 19:52 | 46.16003 | -73.15715 | 18720 ft | 366 kts | 38° |
| 2026-05-04 19:52 | 46.17725 | -73.13091 | 18720 ft | 366 kts | 37° |
| 2026-05-04 19:52 | 46.19474 | -73.10434 | 18722 ft | 367 kts | 37° |
| 2026-05-04 19:52 | 46.21219 | -73.07769 | 18730 ft | 367 kts | 38° |
| 2026-05-04 19:53 | 46.22955 | -73.05110 | 18726 ft | 368 kts | 38° |
| 2026-05-04 19:53 | 46.24697 | -73.02432 | 18725 ft | 369 kts | 37° |
| 2026-05-04 19:53 | 46.26450 | -72.99734 | 18721 ft | 369 kts | 38° |
| 2026-05-04 19:53 | 46.28095 | -72.97198 | 18725 ft | 370 kts | 38° |
| 2026-05-04 19:54 | 46.29796 | -72.94565 | 18731 ft | 369 kts | 38° |
| 2026-05-04 19:54 | 46.31552 | -72.91846 | 18733 ft | 370 kts | 38° |
| 2026-05-04 19:54 | 46.33299 | -72.89140 | 18727 ft | 369 kts | 38° |
| 2026-05-04 19:54 | 46.35031 | -72.86417 | 18744 ft | 370 kts | 40° |
| 2026-05-04 19:55 | 46.36517 | -72.83358 | 18746 ft | 381 kts | 53° |
| 2026-05-04 19:55 | 46.37641 | -72.79884 | 18748 ft | 388 kts | 61° |
| 2026-05-04 19:55 | 46.38595 | -72.76296 | 18747 ft | 389 kts | 63° |
| 2026-05-04 19:55 | 46.39544 | -72.72656 | 18747 ft | 390 kts | 62° |
| 2026-05-04 19:56 | 46.40501 | -72.69090 | 18747 ft | 389 kts | 62° |
| 2026-05-04 19:56 | 46.41500 | -72.65508 | 18747 ft | 389 kts | 61° |
| 2026-05-04 19:56 | 46.42533 | -72.61918 | 18747 ft | 389 kts | 60° |
| 2026-05-04 19:56 | 46.43577 | -72.58349 | 18747 ft | 390 kts | 60° |
| 2026-05-04 19:57 | 46.44567 | -72.54969 | 18698 ft | 389 kts | 60° |
| 2026-05-04 19:57 | 46.45605 | -72.51396 | 18236 ft | 390 kts | 60° |
| 2026-05-04 19:57 | 46.46626 | -72.47867 | 17801 ft | 389 kts | 61° |
| 2026-05-04 19:57 | 46.47657 | -72.44287 | 17362 ft | 388 kts | 61° |
| 2026-05-04 19:58 | 46.48678 | -72.40713 | 16957 ft | 386 kts | 61° |
| 2026-05-04 19:58 | 46.49683 | -72.37168 | 16612 ft | 383 kts | 62° |
| 2026-05-04 19:58 | 46.50677 | -72.33636 | 16233 ft | 381 kts | 62° |
| 2026-05-04 19:58 | 46.51665 | -72.30129 | 15835 ft | 379 kts | 62° |
| 2026-05-04 19:59 | 46.52633 | -72.26705 | 15435 ft | 378 kts | 61° |
| 2026-05-04 19:59 | 46.53631 | -72.23181 | 15015 ft | 377 kts | 61° |
| 2026-05-04 19:59 | 46.54619 | -72.19659 | 14590 ft | 375 kts | 62° |
| 2026-05-04 19:59 | 46.55622 | -72.16191 | 14164 ft | 371 kts | 62° |
| 2026-05-04 20:00 | 46.56623 | -72.12777 | 13744 ft | 366 kts | 63° |
| 2026-05-04 20:00 | 46.57565 | -72.09489 | 13342 ft | 361 kts | 63° |
| 2026-05-04 20:00 | 46.58509 | -72.06105 | 12931 ft | 357 kts | 64° |
| 2026-05-04 20:00 | 46.59415 | -72.02801 | 12529 ft | 354 kts | 64° |
| 2026-05-04 20:01 | 46.60324 | -71.99510 | 12129 ft | 350 kts | 63° |
| 2026-05-04 20:01 | 46.61281 | -71.96374 | 11741 ft | 345 kts | 61° |
| 2026-05-04 20:01 | 46.62306 | -71.93288 | 11354 ft | 340 kts | 59° |
| 2026-05-04 20:01 | 46.63354 | -71.90264 | 10972 ft | 335 kts | 58° |
| 2026-05-04 20:02 | 46.64404 | -71.87265 | 10592 ft | 330 kts | 58° |
| 2026-05-04 20:02 | 46.65416 | -71.84353 | 10225 ft | 325 kts | 59° |
| 2026-05-04 20:02 | 46.66401 | -71.81465 | 9861 ft | 321 kts | 59° |
| 2026-05-04 20:02 | 46.67376 | -71.78562 | 9497 ft | 316 kts | 60° |
| 2026-05-04 20:03 | 46.68324 | -71.75717 | 9140 ft | 311 kts | 60° |
| 2026-05-04 20:03 | 46.69258 | -71.72908 | 8789 ft | 306 kts | 60° |
| 2026-05-04 20:03 | 46.70166 | -71.70170 | 8446 ft | 302 kts | 60° |
| 2026-05-04 20:03 | 46.71063 | -71.67472 | 8107 ft | 294 kts | 60° |
| 2026-05-04 20:04 | 46.71899 | -71.64955 | 7791 ft | 280 kts | 59° |
| 2026-05-04 20:04 | 46.72889 | -71.62569 | 7485 ft | 273 kts | 48° |
| 2026-05-04 20:04 | 46.74126 | -71.60522 | 7178 ft | 269 kts | 40° |
| 2026-05-04 20:04 | 46.75436 | -71.58638 | 6874 ft | 266 kts | 39° |
| 2026-05-04 20:05 | 46.76767 | -71.56778 | 6570 ft | 264 kts | 39° |
| 2026-05-04 20:05 | 46.78087 | -71.54944 | 6270 ft | 262 kts | 39° |
| 2026-05-04 20:05 | 46.79400 | -71.53109 | 5970 ft | 261 kts | 39° |
| 2026-05-04 20:05 | 46.80690 | -71.51286 | 5673 ft | 259 kts | 40° |
| 2026-05-04 20:06 | 46.81971 | -71.49453 | 5379 ft | 258 kts | 41° |
| 2026-05-04 20:06 | 46.83245 | -71.47623 | 5149 ft | 253 kts | 41° |
| 2026-05-04 20:06 | 46.84468 | -71.45845 | 5067 ft | 244 kts | 40° |
| 2026-05-04 20:06 | 46.85641 | -71.44139 | 5024 ft | 238 kts | 40° |
| 2026-05-04 20:07 | 46.86810 | -71.42440 | 5009 ft | 237 kts | 40° |
| 2026-05-04 20:07 | 46.87976 | -71.40756 | 5002 ft | 236 kts | 39° |
| 2026-05-04 20:07 | 46.89147 | -71.39075 | 4999 ft | 236 kts | 39° |
| 2026-05-04 20:07 | 46.90366 | -71.37470 | 4998 ft | 235 kts | 35° |
| 2026-05-04 20:08 | 46.91606 | -71.35953 | 4998 ft | 235 kts | 34° |
| 2026-05-04 20:08 | 46.92874 | -71.34452 | 4998 ft | 235 kts | 33° |
| 2026-05-04 20:08 | 46.94146 | -71.32972 | 4997 ft | 235 kts | 33° |
| 2026-05-04 20:08 | 46.95360 | -71.31496 | 4783 ft | 240 kts | 37° |
| 2026-05-04 20:09 | 46.96572 | -71.29851 | 4546 ft | 238 kts | 38° |
| 2026-05-04 20:09 | 46.97743 | -71.28170 | 4376 ft | 235 kts | 40° |
| 2026-05-04 20:09 | 46.98893 | -71.26498 | 4220 ft | 233 kts | 40° |
| 2026-05-04 20:09 | 46.99806 | -71.24570 | 4131 ft | 233 kts | 68° |
| 2026-05-04 20:10 | 46.99960 | -71.22237 | 4113 ft | 228 kts | 101° |
| 2026-05-04 20:10 | 46.99307 | -71.20194 | 4047 ft | 219 kts | 134° |
| 2026-05-04 20:10 | 46.98147 | -71.18930 | 4025 ft | 208 kts | 159° |
| 2026-05-04 20:10 | 46.96830 | -71.18144 | 4011 ft | 205 kts | 163° |
| 2026-05-04 20:11 | 46.95474 | -71.17779 | 3907 ft | 198 kts | 188° |
| 2026-05-04 20:11 | 46.94217 | -71.18253 | 3727 ft | 191 kts | 212° |
| 2026-05-04 20:11 | 46.93115 | -71.19307 | 3533 ft | 189 kts | 224° |
| 2026-05-04 20:11 | 46.92145 | -71.20573 | 3337 ft | 188 kts | 227° |
| 2026-05-04 20:12 | 46.91212 | -71.21885 | 3149 ft | 183 kts | 227° |
| 2026-05-04 20:12 | 46.90347 | -71.23131 | 3053 ft | 169 kts | 227° |
| 2026-05-04 20:12 | 46.89526 | -71.24324 | 2849 ft | 164 kts | 227° |
| 2026-05-04 20:12 | 46.88746 | -71.25465 | 2660 ft | 153 kts | 228° |
| 2026-05-04 20:13 | 46.88005 | -71.26552 | 2509 ft | 152 kts | 229° |
| 2026-05-04 20:13 | 46.87255 | -71.27668 | 2295 ft | 154 kts | 227° |
| 2026-05-04 20:13 | 46.86500 | -71.28772 | 2154 ft | 152 kts | 226° |
| 2026-05-04 20:13 | 46.85724 | -71.29903 | 1931 ft | 157 kts | 226° |
| 2026-05-04 20:14 | 46.84964 | -71.30992 | 1669 ft | 145 kts | 225° |
| 2026-05-04 20:14 | 46.84284 | -71.31957 | 1419 ft | 129 kts | 225° |
| 2026-05-04 20:14 | 46.83641 | -71.32875 | 1252 ft | 129 kts | 225° |
| 2026-05-04 20:14 | 46.83010 | -71.33778 | 1092 ft | 129 kts | 225° |
| 2026-05-04 20:15 | 46.82372 | -71.34694 | 923 ft | 129 kts | 225° |
| 2026-05-04 20:15 | 46.81729 | -71.35616 | 750 ft | 130 kts | 225° |
| 2026-05-04 20:15 | 46.81085 | -71.36540 | 602 ft | 129 kts | 226° |
| 2026-05-04 20:15 | 46.80437 | -71.37472 | 411 ft | 131 kts | 225° |
| 2026-05-04 20:16 | 46.79788 | -71.38407 | 270 ft | 129 kts | 225° |
| 2026-05-04 20:16 | 46.79236 | -71.39195 | 252 ft | 85 kts | 227° |
| 2026-05-04 20:16 | 46.78988 | -71.39559 | 252 ft | 20 kts | 226° |
| 2026-05-04 20:16 | 46.78917 | -71.39665 | 252 ft | 10 kts | 226° |
| 2026-05-04 20:17 | 46.78863 | -71.39706 | 252 ft | 12 kts | 149° |
| 2026-05-04 20:17 | 46.78835 | -71.39548 | 252 ft | 21 kts | 97° |
| 2026-05-04 20:17 | 46.78882 | -71.39345 | 252 ft | 25 kts | 36° |
| 2026-05-04 20:17 | 46.79012 | -71.39173 | 252 ft | 25 kts | 43° |
| 2026-05-04 20:18 | 46.79134 | -71.39003 | 252 ft | 22 kts | 43° |
| 2026-05-04 20:18 | 46.79194 | -71.38850 | 252 ft | 15 kts | 119° |
| 2026-05-04 20:18 | 46.79118 | -71.38771 | 252 ft | 12 kts | 149° |
| 2026-05-04 20:18 | 46.79049 | -71.38697 | 252 ft | 12 kts | 117° |
| 2026-05-04 20:19 | 46.79046 | -71.38591 | 252 ft | 9 kts | 81° |
| 2026-05-04 20:19 | 46.79057 | -71.38524 | 252 ft | 4 kts | 75° |
| 2026-05-04 20:19 | 46.79058 | -71.38520 | 252 ft | 0 kts | 76° |